createdAt,value
2023-08-19T08:31:59.363Z,7.360000000000001
2023-08-19T08:34:55.890Z,5.98
2023-08-19T08:37:52.479Z,6.8
2023-08-19T08:40:47.967Z,6.76
2023-08-19T08:43:47.549Z,7.12
2023-08-19T08:46:46.072Z,7.44
2023-08-19T08:49:44.631Z,6.540000000000001
2023-08-19T08:52:41.217Z,6.639999999999999
2023-08-19T08:55:37.731Z,6.8
2023-08-19T08:58:34.304Z,7
2023-08-19T09:01:32.874Z,6.24
2023-08-19T09:04:34.426Z,8
2023-08-19T09:07:35.953Z,6.659999999999999
2023-08-19T09:10:33.497Z,7.720000000000001
2023-08-19T09:13:32.080Z,7.88
2023-08-19T09:16:27.591Z,7.6
2023-08-19T09:19:24.220Z,7.7
2023-08-19T09:22:20.823Z,6.8199999999999985
2023-08-19T09:25:17.294Z,8.24
2023-08-19T09:28:17.874Z,7.4799999999999995
2023-08-19T09:31:19.429Z,7.839999999999999
2023-08-19T09:34:16.009Z,6.74
2023-08-19T09:37:13.536Z,6.580000000000001
2023-08-19T09:40:12.371Z,7.7
2023-08-19T09:43:07.632Z,6.5200000000000005
2023-08-19T09:46:03.227Z,6.92
2023-08-19T09:49:19.773Z,6.260000000000001
2023-08-19T09:52:20.442Z,7.5200000000000005
2023-08-19T09:55:23.807Z,6.9
2023-08-19T09:58:19.385Z,6.92
2023-08-19T10:01:16.017Z,7.8
2023-08-19T10:04:11.508Z,6.540000000000001
2023-08-19T10:07:11.053Z,5.9
2023-08-19T10:10:09.628Z,6.04
2023-08-19T10:13:08.179Z,6.3
2023-08-19T10:16:06.707Z,6.779999999999999
2023-08-19T10:19:06.257Z,6.5600000000000005
2023-08-19T10:22:06.362Z,5.62
2023-08-19T10:25:04.365Z,6.159999999999999
2023-08-19T10:28:07.857Z,6.42
2023-08-19T10:31:06.500Z,6.640000000000001
2023-08-19T10:34:10.976Z,6.359999999999999
2023-08-19T10:37:07.550Z,5.9399999999999995
2023-08-19T10:40:06.060Z,6.339999999999999
2023-08-19T10:43:01.698Z,5.779999999999999
2023-08-19T10:46:02.238Z,5.68
2023-08-19T10:49:04.840Z,5.98
2023-08-19T10:52:15.330Z,6.5200000000000005
2023-08-19T10:55:18.875Z,6.24
2023-08-19T10:58:15.400Z,6.56
2023-08-19T11:01:11.951Z,6.340000000000001
2023-08-19T11:04:07.528Z,6.5600000000000005
2023-08-19T11:07:05.148Z,5.88
2023-08-19T11:10:00.649Z,6.32
2023-08-19T11:13:01.166Z,6.3
2023-08-19T11:16:01.801Z,6.42
2023-08-19T11:18:58.290Z,5.82
2023-08-19T11:21:55.821Z,7.260000000000001
2023-08-19T11:24:51.681Z,6.68
2023-08-19T11:27:47.059Z,6.44
2023-08-19T11:30:44.524Z,7.44
2023-08-19T11:33:43.110Z,5.92
2023-08-19T11:36:39.646Z,6.38
2023-08-19T11:39:37.188Z,5.68
2023-08-19T11:42:33.982Z,6.32
2023-08-19T11:45:34.318Z,5.260000000000001
2023-08-19T11:48:29.862Z,5.859999999999999
2023-08-19T11:51:26.442Z,6.74
2023-08-19T11:54:25.070Z,6.4
2023-08-19T11:57:21.706Z,6.1
2023-08-19T12:00:18.082Z,6.119999999999999
2023-08-19T12:03:15.680Z,5.6
2023-08-19T12:06:12.224Z,5.499999999999999
2023-08-19T12:09:07.776Z,4.9799999999999995
2023-08-19T12:12:08.316Z,5.5600000000000005
2023-08-19T12:15:04.970Z,6
2023-08-19T12:18:00.492Z,5.7
2023-08-19T12:20:58.002Z,6.659999999999999
2023-08-19T12:23:53.589Z,6.68
2023-08-19T12:26:49.118Z,5.340000000000001
2023-08-19T12:29:45.759Z,7.279999999999999
2023-08-19T12:32:41.319Z,6.82
2023-08-19T12:35:37.801Z,5.9
2023-08-19T12:38:33.470Z,5.720000000000001
2023-08-19T12:41:28.927Z,6.339999999999999
2023-08-19T12:44:25.482Z,6.82
2023-08-19T12:47:22.181Z,5.76
2023-08-19T12:50:19.637Z,6.74
2023-08-19T12:53:15.208Z,6.32
2023-08-19T12:56:11.754Z,6.62
2023-08-19T12:59:07.340Z,7.12
2023-08-19T13:02:05.822Z,5.1
2023-08-19T13:05:02.397Z,7.18
2023-08-19T13:07:58.967Z,6.860000000000001
2023-08-19T13:10:54.499Z,6.640000000000001
2023-08-19T13:13:50.078Z,6.02
2023-08-19T13:16:46.670Z,5.96
2023-08-19T13:19:42.218Z,5.8
2023-08-19T13:22:37.795Z,6.32
2023-08-19T13:25:34.318Z,5.82
2023-08-19T13:28:31.882Z,6.44
2023-08-19T13:31:29.462Z,6.3
2023-08-19T13:34:25.055Z,5.9
2023-08-19T13:37:20.587Z,6.28
2023-08-19T13:40:16.198Z,6.38
2023-08-19T13:43:12.716Z,6.62
2023-08-19T13:46:08.268Z,6.2
2023-08-19T13:49:04.808Z,6.3
2023-08-19T13:52:00.378Z,6.199999999999999
2023-08-19T13:54:56.930Z,5.159999999999999
2023-08-19T13:57:54.511Z,6.26
2023-08-19T14:00:52.149Z,6.3
2023-08-19T14:03:48.905Z,6.359999999999999
2023-08-19T14:06:44.176Z,6.4799999999999995
2023-08-19T14:09:39.736Z,5.8999999999999995
2023-08-19T14:12:35.304Z,5.42
2023-08-19T14:15:30.871Z,7
2023-08-19T14:18:27.403Z,6.06
2023-08-19T14:21:23.003Z,6.159999999999999
2023-08-19T14:24:18.545Z,6.76
2023-08-19T14:27:14.093Z,5.88
2023-08-19T14:30:10.690Z,5.619999999999999
2023-08-19T14:33:08.238Z,5.9
2023-08-19T14:36:04.864Z,5.7
2023-08-19T14:39:01.336Z,6.6
2023-08-19T14:41:58.008Z,5.9399999999999995
2023-08-19T14:44:54.467Z,6.5
2023-08-19T14:47:50.051Z,6.459999999999999
2023-08-19T14:50:46.580Z,5.7
2023-08-19T14:53:42.176Z,5.92
2023-08-19T14:56:37.693Z,6.38
2023-08-19T14:59:34.285Z,7.159999999999999
2023-08-19T15:02:34.903Z,5.6
2023-08-19T15:05:32.378Z,6.24
2023-08-19T15:08:27.951Z,6.959999999999999
2023-08-19T15:11:23.465Z,6.720000000000001
2023-08-19T15:14:20.097Z,5.82
2023-08-19T15:17:15.579Z,6.1
2023-08-19T15:20:12.177Z,6.08
2023-08-19T15:23:07.754Z,6.859999999999999
2023-08-19T15:26:03.287Z,6.16
2023-08-19T15:28:58.835Z,6.1
2023-08-19T15:31:56.376Z,6.0600000000000005
2023-08-19T15:34:52.000Z,6.24
2023-08-19T15:37:51.538Z,6.220000000000001
2023-08-19T15:40:47.084Z,6.459999999999999
2023-08-19T15:43:42.640Z,6.779999999999999
2023-08-19T15:46:38.242Z,6.480000000000001
2023-08-19T15:49:33.740Z,5.24
2023-08-19T15:52:29.388Z,5.92
2023-08-19T15:55:24.905Z,5.460000000000001
2023-08-19T15:58:20.491Z,7.1
2023-08-19T16:01:16.132Z,7.0200000000000005
2023-08-19T16:04:13.153Z,6.6
2023-08-19T16:07:14.126Z,5.74
2023-08-19T16:13:16.228Z,6.1
2023-08-19T16:16:11.870Z,6.26
2023-08-19T16:19:07.363Z,6.3
2023-08-19T16:22:03.894Z,6.359999999999999
2023-08-19T16:24:59.484Z,7.360000000000001
2023-08-19T16:27:55.045Z,6.82
2023-08-19T16:30:50.617Z,6.640000000000001
2023-08-19T16:33:46.169Z,5.8
2023-08-19T16:36:41.713Z,6.340000000000001
2023-08-19T16:39:37.286Z,6.56
2023-08-19T16:42:32.852Z,6.779999999999999
2023-08-19T16:45:29.425Z,6.68
2023-08-19T16:48:25.976Z,5.9799999999999995
2023-08-19T16:51:21.511Z,6.4799999999999995
2023-08-19T16:54:17.066Z,6.840000000000001
2023-08-19T16:57:12.673Z,5.8
2023-08-19T17:00:08.275Z,6.18
2023-08-19T17:03:04.787Z,5.959999999999999
2023-08-19T17:06:01.346Z,7.3
2023-08-19T17:08:58.866Z,5.9399999999999995
2023-08-19T17:11:54.423Z,5.760000000000001
2023-08-19T17:14:51.188Z,6.18
2023-08-19T17:17:47.611Z,6.720000000000001
2023-08-19T17:20:44.107Z,7.88
2023-08-19T17:23:41.743Z,6.32
2023-08-19T17:26:39.253Z,8.52
2023-08-19T17:29:35.818Z,7.880000000000001
2023-08-19T17:32:31.387Z,7.18
2023-08-19T17:35:26.882Z,7.5
2023-08-19T17:38:22.506Z,7.139999999999999
2023-08-19T17:41:19.074Z,8.26
2023-08-19T17:44:16.018Z,7.94
2023-08-19T17:47:13.156Z,7.500000000000002
2023-08-19T17:50:09.745Z,7.159999999999999
2023-08-19T17:53:06.276Z,8.5
2023-08-19T17:56:02.852Z,7.88
2023-08-19T17:59:03.408Z,7.9
2023-08-19T18:01:58.962Z,7.08
2023-08-19T18:04:57.575Z,7.480000000000001
2023-08-19T18:07:54.127Z,6.9799999999999995
2023-08-19T18:10:50.651Z,7.359999999999999
2023-08-19T18:13:46.212Z,7.32
2023-08-19T18:16:42.743Z,7.4799999999999995
2023-08-19T18:19:39.321Z,8.22
2023-08-19T18:22:36.864Z,6.6
2023-08-19T18:25:32.425Z,7.94
2023-08-19T18:28:31.044Z,7.08
2023-08-19T18:31:26.598Z,6.839999999999999
2023-08-19T18:34:22.118Z,6.68
2023-08-19T18:37:17.622Z,7.5200000000000005
2023-08-19T18:40:15.392Z,7.56
2023-08-19T18:43:11.781Z,7.44
2023-08-19T18:46:08.400Z,6.760000000000001
2023-08-19T18:49:04.894Z,7.08
2023-08-19T18:52:00.485Z,7.779999999999999
2023-08-19T18:54:55.998Z,8.52
2023-08-19T18:57:51.588Z,7.480000000000001
2023-08-19T19:00:49.175Z,7.2
2023-08-19T19:03:45.690Z,6.9399999999999995
2023-08-19T19:06:41.224Z,7.080000000000001
2023-08-19T19:09:37.837Z,6.4
2023-08-19T19:12:33.373Z,7.24
2023-08-19T19:15:28.990Z,8.059999999999999
2023-08-19T19:18:26.507Z,7.360000000000001
2023-08-19T19:21:24.116Z,6.359999999999999
2023-08-19T19:24:21.680Z,6.6800000000000015
2023-08-19T19:27:17.197Z,6.4
2023-08-19T19:30:13.703Z,6.24
2023-08-19T19:33:10.309Z,6.639999999999999
2023-08-19T19:36:05.869Z,6.32
2023-08-19T19:39:01.443Z,6.5600000000000005
2023-08-19T19:41:57.017Z,7.8
2023-08-19T19:44:53.607Z,7.159999999999999
2023-08-19T19:47:50.124Z,7.839999999999999
2023-08-19T19:50:46.630Z,7.9799999999999995
2023-08-19T19:53:42.220Z,7.3
2023-08-19T19:56:37.793Z,6.9399999999999995
2023-08-19T19:59:34.373Z,7.88
2023-08-19T20:02:29.907Z,7.359999999999999
2023-08-19T20:05:27.479Z,8.2
2023-08-19T20:08:26.037Z,8.26
2023-08-19T20:11:25.585Z,8.219999999999999
2023-08-19T20:14:22.124Z,7.619999999999999
2023-08-19T20:17:17.693Z,8.760000000000002
2023-08-19T20:20:14.327Z,8
2023-08-19T20:23:09.806Z,8.3
2023-08-19T20:26:05.353Z,8.32
2023-08-19T20:29:00.968Z,7.339999999999999
2023-08-19T20:31:58.528Z,8.32
2023-08-19T20:34:56.069Z,7.9
2023-08-19T20:37:51.667Z,7.56
2023-08-19T20:40:47.212Z,7.26
2023-08-19T20:43:44.782Z,8.82
2023-08-19T20:46:41.345Z,8.02
2023-08-19T20:49:38.865Z,7.9799999999999995
2023-08-19T20:52:35.445Z,8.9
2023-08-19T20:55:31.996Z,8.62
2023-08-19T20:58:28.517Z,8.18
2023-08-19T21:01:25.122Z,8.6
2023-08-19T21:04:21.723Z,8.84
2023-08-19T21:07:18.223Z,9.099999999999998
2023-08-19T21:10:13.774Z,8.040000000000001
2023-08-19T21:13:09.341Z,8.1
2023-08-19T21:16:08.929Z,8.62
2023-08-19T21:19:04.448Z,8.440000000000001
2023-08-19T21:21:59.986Z,9.06
2023-08-19T21:24:56.576Z,8.26
2023-08-19T21:27:52.108Z,7.720000000000001
2023-08-19T21:30:54.697Z,8.360000000000001
2023-08-19T21:33:52.234Z,7.8199999999999985
2023-08-19T21:36:47.757Z,8
2023-08-19T21:39:43.341Z,8.26
2023-08-19T21:42:42.921Z,7.88
2023-08-19T21:45:39.546Z,7.94
2023-08-19T21:48:35.002Z,8.62
2023-08-19T21:51:30.603Z,8.46
2023-08-19T21:54:26.198Z,7.760000000000001
2023-08-19T21:57:21.771Z,8.16
2023-08-19T22:00:17.287Z,8.16
2023-08-19T22:03:12.871Z,8.459999999999999
2023-08-19T22:06:16.395Z,9.24
2023-08-19T22:09:11.955Z,8.62
2023-08-19T22:12:07.514Z,8.08
2023-08-19T22:15:03.100Z,7.82
2023-08-19T22:18:00.759Z,8.040000000000001
2023-08-19T22:20:56.212Z,8.22
2023-08-19T22:23:51.789Z,7.719999999999999
2023-08-19T22:26:47.334Z,7.68
2023-08-19T22:29:42.850Z,8.7
2023-08-19T22:32:38.435Z,7.88
2023-08-19T22:35:36.980Z,7.9
2023-08-19T22:38:32.559Z,8.2
2023-08-19T22:41:28.077Z,8.52
2023-08-19T22:44:23.706Z,8.779999999999998
2023-08-19T22:47:19.298Z,8.66
2023-08-19T22:50:14.830Z,7.540000000000001
2023-08-19T22:53:10.776Z,8.7
2023-08-19T22:56:05.941Z,8.66
2023-08-19T22:59:01.505Z,7.82
2023-08-19T23:01:58.143Z,8.9
2023-08-19T23:04:53.616Z,8.78
2023-08-19T23:07:49.161Z,7.58
2023-08-19T23:10:44.753Z,8.36
2023-08-19T23:13:40.321Z,9.6
2023-08-19T23:16:35.923Z,8.78
2023-08-19T23:19:31.427Z,8.96
2023-08-19T23:22:26.978Z,8.079999999999998
2023-08-19T23:25:24.538Z,8.559999999999999
2023-08-19T23:28:20.065Z,8.42
2023-08-19T23:31:16.745Z,8.36
2023-08-19T23:34:12.231Z,9.34
2023-08-19T23:37:07.787Z,9.499999999999998
2023-08-19T23:40:04.339Z,9.540000000000001
2023-08-19T23:42:59.914Z,8.620000000000001
2023-08-19T23:45:57.484Z,7.8
2023-08-19T23:48:54.035Z,8.940000000000001
2023-08-19T23:51:52.565Z,8.6
2023-08-19T23:54:49.121Z,8.3
2023-08-19T23:57:45.701Z,8.14
